To NAV CANADA Home Page Login to a new session Search on AWWS site Feedback and Comments Disclaimer Vers la page française équivalente Tips FAQ What's new on the site To the Forecasts and Observations / NOTAM section To "File a Flight Plan" website Publications and other links Update of the User's profile FIC Telephone Numbers My Weather Data Folder Route Weather Data Regional Weather Data Local Weather Data To the Forecasts and Observations / NOTAM section
Request Generated 05/24/2015 at 09:00:15 UTC . Weather information available at that time is displayed.

METAR/TAF

COMOX/BC    

METAR CYQQ 240800Z 16004KT 20SM FEW030 FEW075 14/13 A3014 RMK SC1AC1 SLP206=
METAR CYQQ 240700Z 15005KT 20SM FEW030 BKN070 15/13 A3013 RMK SC1AC2 SLP205=
METAR CYQQ 240600Z CCA 19005KT 20SM FEW030 SCT075 15/12 A3013 RMK SC1AC2 SLP203=
METAR CYQQ 240600Z 19005KT 20SM FEW030 SCT075 15/12 A3013 RMK SC1AC2 SLP203=

TAF CYQQ 240539Z 2406/2506 VRB03KT P6SM FEW020 SCT060
FM240800 33008KT P6SM SCT020 BKN040 TEMPO 2408/2418 SCT012 BKN020
FM242000 02006KT P6SM SCT040
RMK NXT FCST BY 241200Z=
Your time UTC time
Weather data provided by Environment Canada and NAV CANADA